createdAt,value
2023-02-11T00:00:41.009Z,-3.98
2023-02-11T00:03:09.268Z,-4.04
2023-02-11T00:05:37.096Z,-4.03
2023-02-11T00:08:05.093Z,-4.00
2023-02-11T00:10:32.865Z,-4.03
2023-02-11T00:13:00.645Z,-4.13
2023-02-11T00:15:29.822Z,-4.18
2023-02-11T00:17:57.608Z,-4.15
2023-02-11T00:20:25.394Z,-4.12
2023-02-11T00:22:53.179Z,-4.16
2023-02-11T00:25:21.165Z,-4.26
2023-02-11T00:27:48.969Z,-4.21
2023-02-11T00:30:16.756Z,-4.20
2023-02-11T00:32:45.916Z,-4.14
2023-02-11T00:35:13.767Z,-4.15
2023-02-11T00:37:41.699Z,-4.24
2023-02-11T00:40:13.160Z,-4.29
2023-02-11T00:42:41.017Z,-4.26
2023-02-11T00:45:09.981Z,-4.30
2023-02-11T00:47:37.974Z,-4.31
2023-02-11T00:50:08.294Z,-4.28
2023-02-11T00:52:36.365Z,-4.24
2023-02-11T00:55:04.387Z,-4.20
2023-02-11T00:57:33.522Z,-4.18
2023-02-11T01:00:01.218Z,-4.18
2023-02-11T01:02:28.975Z,-4.22
2023-02-11T01:04:56.805Z,-4.30
2023-02-11T01:07:25.993Z,-4.31
2023-02-11T01:09:53.809Z,-4.32
2023-02-11T01:12:21.755Z,-4.33
2023-02-11T01:14:49.754Z,-4.33
2023-02-11T01:17:19.602Z,-4.33
2023-02-11T01:19:51.015Z,-4.34
2023-02-11T01:22:19.189Z,-4.36
2023-02-11T01:24:49.660Z,-4.35
2023-02-11T01:27:17.393Z,-4.34
2023-02-11T01:29:45.769Z,-4.34
2023-02-11T01:32:14.282Z,-4.43
2023-02-11T01:34:42.102Z,-4.47
2023-02-11T01:37:09.929Z,-4.44
2023-02-11T01:39:37.760Z,-4.44
2023-02-11T01:42:08.132Z,-4.43
2023-02-11T01:44:38.067Z,-4.43
2023-02-11T01:47:06.464Z,-4.44
2023-02-11T01:49:37.524Z,-4.43
2023-02-11T01:52:11.123Z,-4.46
2023-02-11T01:55:01.117Z,-4.48
2023-02-11T01:57:34.805Z,-4.57
2023-02-11T02:00:11.258Z,-4.57
2023-02-11T02:02:51.429Z,-4.66
2023-02-11T02:05:25.813Z,-4.65
2023-02-11T02:08:01.378Z,-4.64
2023-02-11T02:10:30.131Z,-4.67
2023-02-11T02:12:59.425Z,-4.66
2023-02-11T02:15:30.601Z,-4.64
2023-02-11T02:18:02.324Z,-4.70
2023-02-11T02:21:14.649Z,-4.72
2023-02-11T02:24:21.501Z,-4.74
2023-02-11T02:27:14.314Z,-4.67
2023-02-11T02:30:16.819Z,-4.66
2023-02-11T02:33:20.538Z,-4.73
2023-02-11T02:35:59.495Z,-4.71
2023-02-11T02:38:32.974Z,-4.64
2023-02-11T02:41:05.161Z,-4.65
2023-02-11T02:43:34.870Z,-4.74
2023-02-11T02:46:19.654Z,-4.75
2023-02-11T02:48:51.049Z,-4.70
2023-02-11T02:51:36.980Z,-4.63
2023-02-11T02:54:30.521Z,-4.67
2023-02-11T02:57:10.961Z,-4.60
2023-02-11T02:59:49.808Z,-4.61
2023-02-11T03:02:25.325Z,-4.60
2023-02-11T03:05:02.639Z,-4.60
2023-02-11T03:07:38.736Z,-4.66
2023-02-11T03:10:12.116Z,-4.68
2023-02-11T03:12:41.977Z,-4.69
2023-02-11T03:15:13.012Z,-4.68
2023-02-11T03:17:43.724Z,-4.65
2023-02-11T03:20:16.911Z,-4.65
2023-02-11T03:22:51.880Z,-4.63
2023-02-11T03:25:22.138Z,-4.62
2023-02-11T03:27:55.212Z,-4.63
2023-02-11T03:30:29.468Z,-4.67
2023-02-11T03:33:01.401Z,-4.72
2023-02-11T03:35:37.650Z,-4.80
2023-02-11T03:38:08.500Z,-4.83
2023-02-11T03:40:39.254Z,-4.81
2023-02-11T03:43:11.066Z,-4.88
2023-02-11T03:45:40.108Z,-4.82
2023-02-11T03:48:21.409Z,-4.83
2023-02-11T03:50:52.737Z,-4.77
2023-02-11T03:53:23.327Z,-4.74
2023-02-11T03:55:53.820Z,-4.69
2023-02-11T03:58:21.947Z,-4.64
2023-02-11T04:00:49.853Z,-4.63
2023-02-11T04:03:17.754Z,-4.60
2023-02-11T04:05:45.944Z,-4.56
2023-02-11T04:08:15.130Z,-4.55
2023-02-11T04:10:42.926Z,-4.51
2023-02-11T04:13:10.690Z,-4.53
2023-02-11T04:15:38.598Z,-4.53
2023-02-11T04:18:06.703Z,-4.55
2023-02-11T04:20:34.512Z,-4.54
2023-02-11T04:23:02.307Z,-4.55
2023-02-11T04:25:31.606Z,-4.53
2023-02-11T04:27:59.410Z,-4.50
2023-02-11T04:30:27.281Z,-4.46
2023-02-11T04:32:55.226Z,-4.47
2023-02-11T04:35:23.051Z,-4.42
2023-02-11T04:37:50.854Z,-4.42
2023-02-11T04:40:18.804Z,-4.39
2023-02-11T04:42:48.070Z,-4.37
2023-02-11T04:45:16.268Z,-4.37
2023-02-11T04:47:44.026Z,-4.34
2023-02-11T04:50:11.862Z,-4.32
2023-02-11T04:52:39.707Z,-4.30
2023-02-11T04:55:08.065Z,-4.26
2023-02-11T04:57:35.813Z,-4.23
2023-02-11T05:00:05.128Z,-4.22
2023-02-11T05:02:33.203Z,-4.18
2023-02-11T05:05:00.937Z,-4.13
2023-02-11T05:07:29.347Z,-4.07
2023-02-11T05:09:57.106Z,-4.04
2023-02-11T05:12:24.944Z,-4.01
2023-02-11T05:14:52.707Z,-3.96
2023-02-11T05:17:21.793Z,-3.92
2023-02-11T05:19:49.572Z,-3.88
2023-02-11T05:22:17.344Z,-3.81
2023-02-11T05:24:45.173Z,-3.75
2023-02-11T05:27:12.942Z,-3.71
2023-02-11T05:29:40.904Z,-3.66
2023-02-11T05:32:09.030Z,-3.61
2023-02-11T05:34:38.186Z,-3.57
2023-02-11T05:37:06.111Z,-3.50
2023-02-11T05:39:33.917Z,-3.46
2023-02-11T05:42:01.682Z,-3.41
2023-02-11T05:44:29.443Z,-3.38
2023-02-11T05:46:57.248Z,-3.31
2023-02-11T05:49:25.119Z,-3.29
2023-02-11T05:51:54.287Z,-3.27
2023-02-11T05:54:22.339Z,-3.25
2023-02-11T05:56:50.135Z,-3.25
2023-02-11T05:59:17.935Z,-3.21
2023-02-11T06:01:45.868Z,-3.18
2023-02-11T06:04:13.687Z,-3.15
2023-02-11T06:06:41.521Z,-3.11
2023-02-11T06:09:11.784Z,-3.09
2023-02-11T06:11:39.706Z,-3.05
2023-02-11T06:14:07.546Z,-3.03
2023-02-11T06:16:35.320Z,-2.99
2023-02-11T06:19:03.393Z,-2.98
2023-02-11T06:21:42.985Z,-2.97
2023-02-11T06:24:13.140Z,-2.97
2023-02-11T06:26:41.128Z,-2.96
2023-02-11T06:29:09.182Z,-2.93
2023-02-11T06:31:38.826Z,-2.89
2023-02-11T06:34:06.954Z,-2.89
2023-02-11T06:36:34.780Z,-2.86
2023-02-11T06:39:02.580Z,-2.86
2023-02-11T06:41:31.954Z,-2.85
2023-02-11T06:43:59.863Z,-2.84
2023-02-11T06:46:27.628Z,-2.82
2023-02-11T06:48:55.384Z,-2.82
2023-02-11T06:51:23.212Z,-2.78
2023-02-11T06:53:51.029Z,-2.75
2023-02-11T06:56:20.800Z,-2.73
2023-02-11T06:58:54.558Z,-2.69
2023-02-11T07:01:22.946Z,-2.66
2023-02-11T07:03:51.791Z,-2.62
2023-02-11T07:06:22.288Z,-2.58
2023-02-11T07:08:50.521Z,-2.54
2023-02-11T07:11:20.502Z,-2.49
2023-02-11T07:13:49.622Z,-2.45
2023-02-11T07:16:18.644Z,-2.42
2023-02-11T07:18:47.988Z,-2.36
2023-02-11T07:21:18.294Z,-2.25
2023-02-11T07:23:46.302Z,-2.22
2023-02-11T07:26:16.880Z,-2.18
2023-02-11T07:28:44.976Z,-2.13
2023-02-11T07:31:16.143Z,-2.07
2023-02-11T07:33:45.770Z,-2.01
2023-02-11T07:36:14.822Z,-1.95
2023-02-11T07:38:42.976Z,-1.90
2023-02-11T07:41:13.366Z,-1.81
2023-02-11T07:43:41.882Z,-1.72
2023-02-11T07:46:14.847Z,-1.63
2023-02-11T07:48:44.065Z,-1.51
2023-02-11T07:51:14.411Z,-1.43
2023-02-11T07:53:42.584Z,-1.38
2023-02-11T07:56:11.853Z,-1.29
2023-02-11T07:58:42.053Z,-1.25
2023-02-11T08:01:12.463Z,-1.18
2023-02-11T08:03:41.940Z,-1.15
2023-02-11T08:06:13.193Z,-1.11
2023-02-11T08:08:41.587Z,-1.03
2023-02-11T08:11:10.771Z,-0.98
2023-02-11T08:13:39.068Z,-0.94
2023-02-11T08:16:08.327Z,-0.88
2023-02-11T08:18:36.869Z,-0.82
2023-02-11T08:21:06.777Z,-0.74
2023-02-11T08:23:37.415Z,-0.67
2023-02-11T08:26:05.702Z,-0.58
2023-02-11T08:28:37.919Z,-0.49
2023-02-11T08:31:10.413Z,-0.40
2023-02-11T08:33:40.376Z,-0.29
2023-02-11T08:36:10.572Z,-0.17
2023-02-11T08:38:39.900Z,-0.07
2023-02-11T08:41:09.479Z,0.03
2023-02-11T08:43:41.570Z,0.16
2023-02-11T08:46:10.207Z,0.28
2023-02-11T08:48:37.991Z,0.39
2023-02-11T08:51:09.354Z,0.53
2023-02-11T08:53:37.412Z,0.67
2023-02-11T08:56:07.203Z,0.73
2023-02-11T08:58:35.396Z,0.77
2023-02-11T09:01:03.298Z,0.86
2023-02-11T09:03:32.001Z,0.86
2023-02-11T09:05:59.719Z,0.88
2023-02-11T09:08:27.583Z,0.89
2023-02-11T09:10:57.644Z,0.91
2023-02-11T09:13:26.817Z,0.93
2023-02-11T09:15:54.563Z,0.92
2023-02-11T09:18:22.433Z,0.83
2023-02-11T09:20:50.607Z,0.89
2023-02-11T09:23:19.094Z,0.92
2023-02-11T09:25:46.846Z,0.96
2023-02-11T09:28:14.641Z,0.96
2023-02-11T09:30:43.889Z,1.04
2023-02-11T09:33:11.741Z,1.15
2023-02-11T09:35:39.535Z,1.20
2023-02-11T09:38:07.286Z,1.30
2023-02-11T09:40:35.202Z,1.37
2023-02-11T09:43:09.343Z,1.45
2023-02-11T09:45:37.150Z,1.53
2023-02-11T09:48:15.549Z,1.58
2023-02-11T09:50:47.696Z,1.65
2023-02-11T09:53:21.276Z,1.65
2023-02-11T09:55:55.643Z,1.80
2023-02-11T09:58:27.881Z,1.93
2023-02-11T10:01:04.102Z,2.11
2023-02-11T10:03:51.275Z,2.28
2023-02-11T10:06:37.588Z,2.43
2023-02-11T10:09:19.103Z,2.46
2023-02-11T10:11:54.312Z,2.50
2023-02-11T10:14:45.041Z,2.50
2023-02-11T10:17:23.910Z,2.52
2023-02-11T10:20:09.254Z,2.49
2023-02-11T10:22:42.532Z,2.53
2023-02-11T10:25:18.851Z,2.55
2023-02-11T10:27:47.045Z,2.54
2023-02-11T10:30:24.605Z,2.64
2023-02-11T10:32:58.674Z,2.71
2023-02-11T10:35:28.255Z,2.81
2023-02-11T10:37:56.822Z,2.93
2023-02-11T10:40:26.086Z,2.96
2023-02-11T10:42:56.339Z,3.00
2023-02-11T10:45:31.478Z,3.06
2023-02-11T10:48:00.183Z,3.05
2023-02-11T10:50:33.488Z,3.12
2023-02-11T10:53:14.485Z,3.26
2023-02-11T10:55:58.390Z,3.45
2023-02-11T10:58:29.319Z,3.67
2023-02-11T11:01:01.346Z,3.78
2023-02-11T11:03:33.120Z,3.86
2023-02-11T11:06:05.221Z,3.96
2023-02-11T11:08:42.764Z,4.01
2023-02-11T11:11:12.273Z,4.17
2023-02-11T11:13:41.777Z,4.38
2023-02-11T11:16:19.245Z,4.50
2023-02-11T11:18:48.826Z,4.45
2023-02-11T11:21:21.124Z,4.58
2023-02-11T11:23:52.098Z,4.78
2023-02-11T11:26:20.189Z,5.00
2023-02-11T11:28:58.789Z,4.96
2023-02-11T11:31:31.082Z,4.90
2023-02-11T11:34:01.758Z,4.82
2023-02-11T11:36:37.894Z,4.75
2023-02-11T11:39:20.965Z,4.72
2023-02-11T11:41:54.600Z,4.87
2023-02-11T11:44:31.994Z,5.03
2023-02-11T11:47:23.023Z,5.23
2023-02-11T11:49:57.698Z,5.41
2023-02-11T11:52:37.876Z,5.52
2023-02-11T11:55:12.910Z,5.60
2023-02-11T11:57:41.085Z,5.65
2023-02-11T12:00:16.756Z,5.62
2023-02-11T12:03:25.146Z,5.52
2023-02-11T12:06:07.966Z,5.54
2023-02-11T12:08:45.627Z,5.58
2023-02-11T12:11:22.191Z,5.51
2023-02-11T12:14:11.126Z,5.44
2023-02-11T12:16:47.918Z,5.43
2023-02-11T12:19:49.249Z,5.50
2023-02-11T12:22:27.893Z,5.67
2023-02-11T12:25:10.775Z,5.91
2023-02-11T12:27:49.812Z,6.07
2023-02-11T12:30:35.295Z,6.24
2023-02-11T12:33:11.657Z,6.37
2023-02-11T12:35:48.644Z,6.47
2023-02-11T12:38:32.914Z,6.56
2023-02-11T12:41:16.150Z,6.59
2023-02-11T12:43:45.104Z,6.68
2023-02-11T12:46:32.227Z,6.68
2023-02-11T12:49:31.475Z,6.76
2023-02-11T12:52:16.342Z,7.00
2023-02-11T12:54:50.111Z,7.16
2023-02-11T12:57:24.248Z,7.25
2023-02-11T12:59:58.965Z,7.28
2023-02-11T13:02:35.876Z,7.37
2023-02-11T13:05:14.466Z,7.38
2023-02-11T13:07:46.104Z,7.64
2023-02-11T13:10:26.086Z,7.56
2023-02-11T13:13:14.337Z,7.59
2023-02-11T13:15:44.749Z,7.42
2023-02-11T13:18:24.269Z,7.33
2023-02-11T13:20:59.369Z,7.28
2023-02-11T13:23:38.348Z,7.16
2023-02-11T13:26:15.480Z,7.08
2023-02-11T13:28:50.345Z,7.06
2023-02-11T13:31:20.536Z,7.06
2023-02-11T13:33:49.794Z,6.99
2023-02-11T13:36:20.670Z,7.01
2023-02-11T13:39:21.190Z,7.10
2023-02-11T13:41:52.549Z,7.13
2023-02-11T13:44:37.922Z,7.15
2023-02-11T13:59:00.755Z,7.05
2023-02-11T14:11:06.189Z,7.01
2023-02-11T14:14:20.072Z,7.01
2023-02-11T14:29:09.560Z,6.93
2023-02-11T14:31:43.832Z,6.93
2023-02-11T14:34:34.581Z,6.84
2023-02-11T14:37:15.658Z,6.80
2023-02-11T14:39:58.836Z,6.80
2023-02-11T14:42:30.871Z,6.79
2023-02-11T14:45:04.462Z,6.68
2023-02-11T14:47:42.288Z,6.70
2023-02-11T14:50:19.199Z,6.67
2023-02-11T14:52:47.892Z,6.60
2023-02-11T14:55:26.564Z,6.58
2023-02-11T14:58:12.617Z,6.56
2023-02-11T15:00:50.588Z,6.49
2023-02-11T15:03:37.302Z,6.46
2023-02-11T15:06:08.814Z,6.41
2023-02-11T15:08:38.737Z,6.37
2023-02-11T15:11:13.032Z,6.33
2023-02-11T15:13:47.331Z,6.27
2023-02-11T15:16:19.782Z,6.17
2023-02-11T15:18:52.428Z,6.10
2023-02-11T15:21:25.649Z,6.06
2023-02-11T15:23:58.585Z,6.02
2023-02-11T15:26:31.899Z,5.95
2023-02-11T15:29:04.197Z,5.95
2023-02-11T15:31:35.177Z,5.95
2023-02-11T15:34:09.808Z,5.89
2023-02-11T15:36:39.066Z,5.78
2023-02-11T15:39:29.822Z,5.77
2023-02-11T15:41:57.569Z,5.76
2023-02-11T15:44:30.053Z,5.71
2023-02-11T15:46:58.416Z,5.65
2023-02-11T15:49:28.084Z,5.62
2023-02-11T15:51:57.941Z,5.61
2023-02-11T15:54:29.414Z,5.58
2023-02-11T15:57:03.543Z,5.52
2023-02-11T15:59:37.848Z,5.49
2023-02-11T16:02:11.542Z,5.46
2023-02-11T16:04:43.260Z,5.41
2023-02-11T16:07:40.125Z,5.31
2023-02-11T16:10:18.799Z,5.24
2023-02-11T16:12:52.994Z,5.17
2023-02-11T16:15:47.976Z,5.10
2023-02-11T16:18:37.386Z,5.01
2023-02-11T16:21:20.515Z,4.80
2023-02-11T16:23:53.994Z,4.73
2023-02-11T16:26:35.215Z,4.61
2023-02-11T16:29:10.885Z,4.52
2023-02-11T16:31:45.151Z,4.46
2023-02-11T16:34:20.431Z,4.34
2023-02-11T16:36:57.851Z,4.29
2023-02-11T16:39:25.709Z,4.06
2023-02-11T16:41:55.932Z,4.05
2023-02-11T16:44:23.941Z,4.01
2023-02-11T16:46:53.040Z,3.88
2023-02-11T16:49:24.915Z,3.84
2023-02-11T16:51:57.314Z,3.71
2023-02-11T16:54:25.283Z,3.63
2023-02-11T16:56:53.022Z,3.53
2023-02-11T16:59:24.290Z,3.43
2023-02-11T17:02:02.265Z,3.35
2023-02-11T17:04:33.511Z,3.23
2023-02-11T17:07:07.451Z,3.21
2023-02-11T17:09:35.960Z,3.10
2023-02-11T17:12:06.385Z,3.02
2023-02-11T17:14:34.764Z,3.04
2023-02-11T17:17:05.620Z,3.04
2023-02-11T17:27:06.032Z,2.98
2023-02-11T17:29:36.394Z,2.93
2023-02-11T17:32:07.535Z,2.93
2023-02-11T17:34:36.433Z,2.92
2023-02-11T17:37:08.977Z,2.87
2023-02-11T17:39:37.078Z,2.80
2023-02-11T17:42:06.893Z,2.78
2023-02-11T17:44:42.611Z,2.79
2023-02-11T17:47:10.429Z,2.78
2023-02-11T17:49:38.434Z,2.80
2023-02-11T17:52:06.270Z,2.77
2023-02-11T17:54:34.579Z,2.76
2023-02-11T17:57:02.753Z,2.75
2023-02-11T17:59:36.272Z,2.69
2023-02-11T18:02:05.401Z,2.70
2023-02-11T18:04:33.378Z,2.71
2023-02-11T18:07:03.454Z,2.70
2023-02-11T18:09:31.439Z,2.70
2023-02-11T18:12:01.538Z,2.68
2023-02-11T18:14:31.145Z,2.65
2023-02-11T18:17:05.324Z,2.66
2023-02-11T18:19:35.900Z,2.68
2023-02-11T18:22:04.316Z,2.67
2023-02-11T18:24:36.739Z,2.62
2023-02-11T18:27:04.701Z,2.61
2023-02-11T18:29:41.111Z,2.62
2023-02-11T18:32:12.481Z,2.65
2023-02-11T18:34:42.016Z,2.67
2023-02-11T18:37:10.340Z,2.69
2023-02-11T18:39:38.369Z,2.71
2023-02-11T18:42:06.347Z,2.69
2023-02-11T18:44:37.604Z,2.67
2023-02-11T18:47:05.458Z,2.60
2023-02-11T18:49:36.161Z,2.60
2023-02-11T18:52:05.369Z,2.64
2023-02-11T18:54:34.857Z,2.61
2023-02-11T18:57:02.597Z,2.61
2023-02-11T18:59:33.471Z,2.60
2023-02-11T19:02:01.225Z,2.60
2023-02-11T19:04:29.030Z,2.54
2023-02-11T19:07:03.043Z,2.53
2023-02-11T19:09:31.146Z,2.54
2023-02-11T19:12:03.428Z,2.56
2023-02-11T19:14:39.849Z,2.49
2023-02-11T19:17:12.271Z,2.38
2023-02-11T19:23:38.489Z,2.46
2023-02-11T19:26:06.893Z,2.48
2023-02-11T19:28:37.058Z,2.45
2023-02-11T19:31:10.113Z,2.46
2023-02-11T19:33:38.111Z,2.43
2023-02-11T19:36:07.980Z,2.47
2023-02-11T19:38:37.482Z,2.43
2023-02-11T19:41:06.255Z,2.41
2023-02-11T19:43:34.220Z,2.45
2023-02-11T19:46:04.093Z,2.47
2023-02-11T19:48:32.030Z,2.44
2023-02-11T19:51:00.312Z,2.48
2023-02-11T19:53:28.272Z,2.50
2023-02-11T19:56:03.816Z,2.54
2023-02-11T19:58:32.251Z,2.51
2023-02-11T20:01:06.939Z,2.53
2023-02-11T20:03:35.291Z,2.58
2023-02-11T20:06:06.671Z,2.60
2023-02-11T20:08:34.824Z,2.60
2023-02-11T20:11:08.771Z,2.61
2023-02-11T20:13:37.800Z,2.60
2023-02-11T20:16:08.127Z,2.62
2023-02-11T20:18:37.378Z,2.61
2023-02-11T20:21:09.251Z,2.62
2023-02-11T20:23:38.278Z,2.61
2023-02-11T20:26:10.302Z,2.61
2023-02-11T20:28:38.548Z,2.61
2023-02-11T20:31:16.633Z,2.63
2023-02-11T20:33:52.288Z,2.62
